sensor_id;sensor_type;location;lat;lon;timestamp;temperature;humidity
17740;DHT22;8990;33.226;-97.150;2023-05-07T00:00:08;29.00;99.90
17740;DHT22;8990;33.226;-97.150;2023-05-07T00:02:37;28.90;99.90
17740;DHT22;8990;33.226;-97.150;2023-05-07T00:05:07;28.90;99.90
17740;DHT22;8990;33.226;-97.150;2023-05-07T00:07:38;28.80;99.90
17740;DHT22;8990;33.226;-97.150;2023-05-07T00:10:08;28.60;99.90
17740;DHT22;8990;33.226;-97.150;2023-05-07T00:12:37;28.60;99.90
17740;DHT22;8990;33.226;-97.150;2023-05-07T00:15:07;28.70;99.90
17740;DHT22;8990;33.226;-97.150;2023-05-07T00:17:36;28.50;99.90
17740;DHT22;8990;33.226;-97.150;2023-05-07T00:20:06;28.40;99.90
17740;DHT22;8990;33.226;-97.150;2023-05-07T00:22:37;28.40;99.90
17740;DHT22;8990;33.226;-97.150;2023-05-07T00:25:07;28.40;99.90
17740;DHT22;8990;33.226;-97.150;2023-05-07T00:27:37;28.30;99.90
17740;DHT22;8990;33.226;-97.150;2023-05-07T00:30:07;28.30;99.90
17740;DHT22;8990;33.226;-97.150;2023-05-07T00:32:37;28.30;99.90
17740;DHT22;8990;33.226;-97.150;2023-05-07T00:35:07;28.30;99.90
17740;DHT22;8990;33.226;-97.150;2023-05-07T00:37:38;28.30;99.90
17740;DHT22;8990;33.226;-97.150;2023-05-07T00:40:08;28.30;99.90
17740;DHT22;8990;33.226;-97.150;2023-05-07T00:42:37;28.20;99.90
17740;DHT22;8990;33.226;-97.150;2023-05-07T00:45:07;28.20;99.90
17740;DHT22;8990;33.226;-97.150;2023-05-07T00:47:40;28.20;99.90
17740;DHT22;8990;33.226;-97.150;2023-05-07T00:50:10;28.30;99.90
17740;DHT22;8990;33.226;-97.150;2023-05-07T00:52:40;28.10;99.90
17740;DHT22;8990;33.226;-97.150;2023-05-07T00:55:10;28.20;99.90
17740;DHT22;8990;33.226;-97.150;2023-05-07T00:57:41;28.10;99.90
17740;DHT22;8990;33.226;-97.150;2023-05-07T01:00:10;28.10;99.90
17740;DHT22;8990;33.226;-97.150;2023-05-07T01:02:40;28.10;99.90
17740;DHT22;8990;33.226;-97.150;2023-05-07T01:05:10;28.10;99.90
17740;DHT22;8990;33.226;-97.150;2023-05-07T01:07:42;28.10;99.90
17740;DHT22;8990;33.226;-97.150;2023-05-07T01:10:12;28.00;99.90
17740;DHT22;8990;33.226;-97.150;2023-05-07T01:12:41;28.00;99.90
17740;DHT22;8990;33.226;-97.150;2023-05-07T01:15:11;28.00;99.90
17740;DHT22;8990;33.226;-97.150;2023-05-07T01:17:40;28.00;99.90
17740;DHT22;8990;33.226;-97.150;2023-05-07T01:20:21;28.00;99.90
17740;DHT22;8990;33.226;-97.150;2023-05-07T01:22:55;28.00;99.90
17740;DHT22;8990;33.226;-97.150;2023-05-07T01:25:26;27.90;99.90
17740;DHT22;8990;33.226;-97.150;2023-05-07T01:27:58;28.00;99.90
17740;DHT22;8990;33.226;-97.150;2023-05-07T01:30:31;28.00;99.90
17740;DHT22;8990;33.226;-97.150;2023-05-07T01:33:07;27.90;99.90
17740;DHT22;8990;33.226;-97.150;2023-05-07T01:35:40;27.90;99.90
17740;DHT22;8990;33.226;-97.150;2023-05-07T01:38:11;27.80;99.90
17740;DHT22;8990;33.226;-97.150;2023-05-07T01:40:40;27.80;99.90
17740;DHT22;8990;33.226;-97.150;2023-05-07T01:43:09;27.80;99.90
17740;DHT22;8990;33.226;-97.150;2023-05-07T01:45:40;27.80;99.90
17740;DHT22;8990;33.226;-97.150;2023-05-07T01:48:12;27.80;99.90
17740;DHT22;8990;33.226;-97.150;2023-05-07T01:50:42;27.80;99.90
17740;DHT22;8990;33.226;-97.150;2023-05-07T01:53:13;27.80;99.90
17740;DHT22;8990;33.226;-97.150;2023-05-07T01:55:42;27.80;99.90
17740;DHT22;8990;33.226;-97.150;2023-05-07T01:58:11;27.80;99.90
17740;DHT22;8990;33.226;-97.150;2023-05-07T02:00:40;27.80;99.90
17740;DHT22;8990;33.226;-97.150;2023-05-07T02:03:09;27.70;99.90
17740;DHT22;8990;33.226;-97.150;2023-05-07T02:05:46;27.60;99.90
17740;DHT22;8990;33.226;-97.150;2023-05-07T02:08:37;27.50;99.90
17740;DHT22;8990;33.226;-97.150;2023-05-07T02:11:06;27.40;99.90
17740;DHT22;8990;33.226;-97.150;2023-05-07T02:13:37;27.20;99.90
17740;DHT22;8990;33.226;-97.150;2023-05-07T02:16:06;27.20;99.90
17740;DHT22;8990;33.226;-97.150;2023-05-07T02:18:35;27.20;99.90
17740;DHT22;8990;33.226;-97.150;2023-05-07T02:21:04;27.10;99.90
17740;DHT22;8990;33.226;-97.150;2023-05-07T02:23:33;27.00;99.90
17740;DHT22;8990;33.226;-97.150;2023-05-07T02:26:05;26.90;99.90
17740;DHT22;8990;33.226;-97.150;2023-05-07T02:28:34;26.70;99.90
17740;DHT22;8990;33.226;-97.150;2023-05-07T02:31:05;26.30;99.90
17740;DHT22;8990;33.226;-97.150;2023-05-07T02:33:35;26.20;99.90
17740;DHT22;8990;33.226;-97.150;2023-05-07T02:36:08;25.30;99.90
17740;DHT22;8990;33.226;-97.150;2023-05-07T02:38:42;24.90;99.90
17740;DHT22;8990;33.226;-97.150;2023-05-07T02:41:13;24.70;99.90
17740;DHT22;8990;33.226;-97.150;2023-05-07T02:43:42;24.70;99.90
17740;DHT22;8990;33.226;-97.150;2023-05-07T02:46:11;24.60;99.90
17740;DHT22;8990;33.226;-97.150;2023-05-07T02:48:44;24.50;99.90
17740;DHT22;8990;33.226;-97.150;2023-05-07T02:51:13;24.30;99.90
17740;DHT22;8990;33.226;-97.150;2023-05-07T02:53:43;24.10;99.90
17740;DHT22;8990;33.226;-97.150;2023-05-07T02:56:14;23.60;99.90
17740;DHT22;8990;33.226;-97.150;2023-05-07T02:58:43;23.50;99.90
17740;DHT22;8990;33.226;-97.150;2023-05-07T03:01:13;23.10;99.90
17740;DHT22;8990;33.226;-97.150;2023-05-07T03:03:50;22.90;99.90
17740;DHT22;8990;33.226;-97.150;2023-05-07T03:06:19;22.60;99.90
17740;DHT22;8990;33.226;-97.150;2023-05-07T03:08:48;22.40;99.90
17740;DHT22;8990;33.226;-97.150;2023-05-07T03:11:18;22.10;99.90
17740;DHT22;8990;33.226;-97.150;2023-05-07T03:13:47;22.00;99.90
17740;DHT22;8990;33.226;-97.150;2023-05-07T03:16:18;22.00;99.90
17740;DHT22;8990;33.226;-97.150;2023-05-07T03:18:47;21.90;99.90
17740;DHT22;8990;33.226;-97.150;2023-05-07T03:21:16;21.80;99.90
17740;DHT22;8990;33.226;-97.150;2023-05-07T03:23:45;21.80;99.90
17740;DHT22;8990;33.226;-97.150;2023-05-07T03:26:14;21.70;99.90
17740;DHT22;8990;33.226;-97.150;2023-05-07T03:28:47;21.50;99.90
17740;DHT22;8990;33.226;-97.150;2023-05-07T03:31:17;21.50;99.90
17740;DHT22;8990;33.226;-97.150;2023-05-07T03:33:54;21.40;99.90
17740;DHT22;8990;33.226;-97.150;2023-05-07T03:36:24;21.40;99.90
17740;DHT22;8990;33.226;-97.150;2023-05-07T03:38:54;21.30;99.90
17740;DHT22;8990;33.226;-97.150;2023-05-07T03:41:26;21.20;99.90
17740;DHT22;8990;33.226;-97.150;2023-05-07T03:43:58;21.10;99.90
17740;DHT22;8990;33.226;-97.150;2023-05-07T03:46:27;21.00;99.90
17740;DHT22;8990;33.226;-97.150;2023-05-07T03:48:56;20.90;99.90
17740;DHT22;8990;33.226;-97.150;2023-05-07T03:51:25;20.80;99.90
17740;DHT22;8990;33.226;-97.150;2023-05-07T03:53:54;20.70;99.90
17740;DHT22;8990;33.226;-97.150;2023-05-07T03:56:24;20.70;99.90
17740;DHT22;8990;33.226;-97.150;2023-05-07T03:58:58;20.80;99.90
17740;DHT22;8990;33.226;-97.150;2023-05-07T04:01:27;20.80;99.90
17740;DHT22;8990;33.226;-97.150;2023-05-07T04:03:57;20.60;99.90
17740;DHT22;8990;33.226;-97.150;2023-05-07T04:06:27;20.50;99.90
17740;DHT22;8990;33.226;-97.150;2023-05-07T04:08:56;20.50;99.90
17740;DHT22;8990;33.226;-97.150;2023-05-07T04:11:26;20.60;99.90
17740;DHT22;8990;33.226;-97.150;2023-05-07T04:13:57;20.50;99.90
17740;DHT22;8990;33.226;-97.150;2023-05-07T04:16:26;20.50;99.90
17740;DHT22;8990;33.226;-97.150;2023-05-07T04:18:54;20.40;99.90
17740;DHT22;8990;33.226;-97.150;2023-05-07T04:21:24;20.40;99.90
17740;DHT22;8990;33.226;-97.150;2023-05-07T04:23:53;20.50;99.90
17740;DHT22;8990;33.226;-97.150;2023-05-07T04:26:21;20.40;99.90
17740;DHT22;8990;33.226;-97.150;2023-05-07T04:28:51;20.40;99.90
17740;DHT22;8990;33.226;-97.150;2023-05-07T04:31:22;20.40;99.90
17740;DHT22;8990;33.226;-97.150;2023-05-07T04:33:54;20.40;99.90
17740;DHT22;8990;33.226;-97.150;2023-05-07T04:36:23;20.40;99.90
17740;DHT22;8990;33.226;-97.150;2023-05-07T04:39:00;20.30;99.90
17740;DHT22;8990;33.226;-97.150;2023-05-07T04:41:29;20.30;99.90
17740;DHT22;8990;33.226;-97.150;2023-05-07T04:43:58;20.40;99.90
17740;DHT22;8990;33.226;-97.150;2023-05-07T04:46:32;20.40;99.90
17740;DHT22;8990;33.226;-97.150;2023-05-07T04:49:00;20.50;99.90
17740;DHT22;8990;33.226;-97.150;2023-05-07T04:51:31;20.50;99.90
17740;DHT22;8990;33.226;-97.150;2023-05-07T04:54:00;20.40;99.90
17740;DHT22;8990;33.226;-97.150;2023-05-07T04:56:31;20.40;99.90
17740;DHT22;8990;33.226;-97.150;2023-05-07T04:59:01;20.30;99.90
17740;DHT22;8990;33.226;-97.150;2023-05-07T05:01:33;20.30;99.90
17740;DHT22;8990;33.226;-97.150;2023-05-07T05:04:02;20.30;99.90
17740;DHT22;8990;33.226;-97.150;2023-05-07T05:06:31;20.30;99.90
17740;DHT22;8990;33.226;-97.150;2023-05-07T05:09:02;20.20;99.90
17740;DHT22;8990;33.226;-97.150;2023-05-07T05:11:32;20.10;99.90
17740;DHT22;8990;33.226;-97.150;2023-05-07T05:14:01;20.20;99.90
17740;DHT22;8990;33.226;-97.150;2023-05-07T05:16:32;20.30;99.90
17740;DHT22;8990;33.226;-97.150;2023-05-07T05:19:02;20.40;99.90
17740;DHT22;8990;33.226;-97.150;2023-05-07T05:21:34;20.20;99.90
17740;DHT22;8990;33.226;-97.150;2023-05-07T05:24:08;20.20;99.90
17740;DHT22;8990;33.226;-97.150;2023-05-07T05:26:37;20.30;99.90
17740;DHT22;8990;33.226;-97.150;2023-05-07T05:29:06;20.30;99.90
17740;DHT22;8990;33.226;-97.150;2023-05-07T05:31:37;20.30;99.90
17740;DHT22;8990;33.226;-97.150;2023-05-07T05:34:06;20.30;99.90
17740;DHT22;8990;33.226;-97.150;2023-05-07T05:36:35;20.40;99.90
17740;DHT22;8990;33.226;-97.150;2023-05-07T05:39:05;20.30;99.90
17740;DHT22;8990;33.226;-97.150;2023-05-07T05:41:35;20.50;99.90
17740;DHT22;8990;33.226;-97.150;2023-05-07T05:44:05;20.50;99.90
17740;DHT22;8990;33.226;-97.150;2023-05-07T05:46:37;20.80;99.90
17740;DHT22;8990;33.226;-97.150;2023-05-07T05:49:06;20.80;99.90
17740;DHT22;8990;33.226;-97.150;2023-05-07T05:51:36;20.90;99.90
17740;DHT22;8990;33.226;-97.150;2023-05-07T05:54:05;21.00;99.90
17740;DHT22;8990;33.226;-97.150;2023-05-07T05:56:34;21.00;99.90
17740;DHT22;8990;33.226;-97.150;2023-05-07T05:59:03;21.00;99.90
17740;DHT22;8990;33.226;-97.150;2023-05-07T06:01:32;21.10;99.90
17740;DHT22;8990;33.226;-97.150;2023-05-07T06:04:05;21.20;99.90
17740;DHT22;8990;33.226;-97.150;2023-05-07T06:06:34;21.30;99.90
17740;DHT22;8990;33.226;-97.150;2023-05-07T06:09:03;21.40;99.90
17740;DHT22;8990;33.226;-97.150;2023-05-07T06:11:38;21.50;99.90
17740;DHT22;8990;33.226;-97.150;2023-05-07T06:14:08;21.60;99.90
17740;DHT22;8990;33.226;-97.150;2023-05-07T06:16:37;21.60;99.90
17740;DHT22;8990;33.226;-97.150;2023-05-07T06:19:09;21.70;99.90
17740;DHT22;8990;33.226;-97.150;2023-05-07T06:21:40;21.60;99.90
17740;DHT22;8990;33.226;-97.150;2023-05-07T06:24:10;21.70;99.90
17740;DHT22;8990;33.226;-97.150;2023-05-07T06:26:39;21.70;99.90
17740;DHT22;8990;33.226;-97.150;2023-05-07T06:29:08;21.80;99.90
17740;DHT22;8990;33.226;-97.150;2023-05-07T06:31:39;21.80;99.90
17740;DHT22;8990;33.226;-97.150;2023-05-07T06:34:11;21.80;99.90
17740;DHT22;8990;33.226;-97.150;2023-05-07T06:36:42;21.80;99.90
17740;DHT22;8990;33.226;-97.150;2023-05-07T06:39:31;21.80;99.90
17740;DHT22;8990;33.226;-97.150;2023-05-07T06:42:01;21.80;99.90
17740;DHT22;8990;33.226;-97.150;2023-05-07T06:44:32;21.70;99.90
17740;DHT22;8990;33.226;-97.150;2023-05-07T06:47:08;21.70;99.90
17740;DHT22;8990;33.226;-97.150;2023-05-07T06:49:41;21.70;99.90
17740;DHT22;8990;33.226;-97.150;2023-05-07T06:52:10;21.70;99.90
17740;DHT22;8990;33.226;-97.150;2023-05-07T06:54:39;21.70;99.90
17740;DHT22;8990;33.226;-97.150;2023-05-07T06:57:08;21.60;99.90
17740;DHT22;8990;33.226;-97.150;2023-05-07T06:59:37;21.60;99.90
17740;DHT22;8990;33.226;-97.150;2023-05-07T07:02:06;21.60;99.90
17740;DHT22;8990;33.226;-97.150;2023-05-07T07:04:36;21.60;99.90
17740;DHT22;8990;33.226;-97.150;2023-05-07T07:07:11;21.60;99.90
17740;DHT22;8990;33.226;-97.150;2023-05-07T07:09:42;21.60;99.90
17740;DHT22;8990;33.226;-97.150;2023-05-07T07:12:11;21.60;99.90
17740;DHT22;8990;33.226;-97.150;2023-05-07T07:14:42;21.60;99.90
17740;DHT22;8990;33.226;-97.150;2023-05-07T07:17:11;21.60;99.90
17740;DHT22;8990;33.226;-97.150;2023-05-07T07:19:40;21.60;99.90
17740;DHT22;8990;33.226;-97.150;2023-05-07T07:22:11;21.70;99.90
17740;DHT22;8990;33.226;-97.150;2023-05-07T07:24:40;21.60;99.90
17740;DHT22;8990;33.226;-97.150;2023-05-07T07:27:11;21.70;99.90
17740;DHT22;8990;33.226;-97.150;2023-05-07T07:29:40;21.70;99.90
17740;DHT22;8990;33.226;-97.150;2023-05-07T07:32:09;21.70;99.90
17740;DHT22;8990;33.226;-97.150;2023-05-07T07:34:39;21.70;99.90
17740;DHT22;8990;33.226;-97.150;2023-05-07T07:37:10;21.80;99.90
17740;DHT22;8990;33.226;-97.150;2023-05-07T07:39:39;21.80;99.90
17740;DHT22;8990;33.226;-97.150;2023-05-07T07:42:09;21.80;99.90
17740;DHT22;8990;33.226;-97.150;2023-05-07T07:44:39;21.80;99.90
17740;DHT22;8990;33.226;-97.150;2023-05-07T07:47:10;21.70;99.90
17740;DHT22;8990;33.226;-97.150;2023-05-07T07:49:41;21.80;99.90
17740;DHT22;8990;33.226;-97.150;2023-05-07T07:52:12;21.70;99.90
17740;DHT22;8990;33.226;-97.150;2023-05-07T07:54:43;21.70;99.90
17740;DHT22;8990;33.226;-97.150;2023-05-07T07:57:12;21.70;99.90
17740;DHT22;8990;33.226;-97.150;2023-05-07T07:59:42;21.70;99.90
17740;DHT22;8990;33.226;-97.150;2023-05-07T08:02:12;21.60;99.90
17740;DHT22;8990;33.226;-97.150;2023-05-07T08:04:41;21.60;99.90
17740;DHT22;8990;33.226;-97.150;2023-05-07T08:07:13;21.40;99.90
17740;DHT22;8990;33.226;-97.150;2023-05-07T08:09:46;21.50;99.90
17740;DHT22;8990;33.226;-97.150;2023-05-07T08:12:17;21.60;99.90
17740;DHT22;8990;33.226;-97.150;2023-05-07T08:14:46;21.50;99.90
17740;DHT22;8990;33.226;-97.150;2023-05-07T08:17:15;21.40;99.90
17740;DHT22;8990;33.226;-97.150;2023-05-07T08:19:45;21.40;99.90
17740;DHT22;8990;33.226;-97.150;2023-05-07T08:22:17;21.40;99.90
17740;DHT22;8990;33.226;-97.150;2023-05-07T08:24:46;21.30;99.90
17740;DHT22;8990;33.226;-97.150;2023-05-07T08:27:15;21.30;99.90
17740;DHT22;8990;33.226;-97.150;2023-05-07T08:29:44;21.30;99.90
17740;DHT22;8990;33.226;-97.150;2023-05-07T08:32:17;21.30;99.90
17740;DHT22;8990;33.226;-97.150;2023-05-07T08:34:46;21.30;99.90
17740;DHT22;8990;33.226;-97.150;2023-05-07T08:37:17;21.30;99.90
17740;DHT22;8990;33.226;-97.150;2023-05-07T08:39:47;21.20;99.90
17740;DHT22;8990;33.226;-97.150;2023-05-07T08:42:21;21.20;99.90
17740;DHT22;8990;33.226;-97.150;2023-05-07T08:44:52;21.30;99.90
17740;DHT22;8990;33.226;-97.150;2023-05-07T08:47:28;21.20;99.90
17740;DHT22;8990;33.226;-97.150;2023-05-07T08:50:01;21.20;99.90
17740;DHT22;8990;33.226;-97.150;2023-05-07T08:52:32;21.20;99.90
17740;DHT22;8990;33.226;-97.150;2023-05-07T08:55:03;21.20;99.90
17740;DHT22;8990;33.226;-97.150;2023-05-07T08:57:33;21.10;99.90
17740;DHT22;8990;33.226;-97.150;2023-05-07T09:00:03;21.10;99.90
17740;DHT22;8990;33.226;-97.150;2023-05-07T09:02:36;21.10;99.90
17740;DHT22;8990;33.226;-97.150;2023-05-07T09:05:07;21.10;99.90
17740;DHT22;8990;33.226;-97.150;2023-05-07T09:07:39;21.00;99.90
17740;DHT22;8990;33.226;-97.150;2023-05-07T09:10:09;21.10;99.90
17740;DHT22;8990;33.226;-97.150;2023-05-07T09:12:40;21.10;99.90
17740;DHT22;8990;33.226;-97.150;2023-05-07T09:15:11;21.20;99.90
17740;DHT22;8990;33.226;-97.150;2023-05-07T09:17:40;21.30;99.90
17740;DHT22;8990;33.226;-97.150;2023-05-07T09:20:11;21.40;99.90
17740;DHT22;8990;33.226;-97.150;2023-05-07T09:22:42;21.70;99.90
17740;DHT22;8990;33.226;-97.150;2023-05-07T09:25:15;21.70;99.90
17740;DHT22;8990;33.226;-97.150;2023-05-07T09:27:44;21.80;99.90
17740;DHT22;8990;33.226;-97.150;2023-05-07T09:30:13;21.70;99.90
17740;DHT22;8990;33.226;-97.150;2023-05-07T09:32:42;21.90;99.90
17740;DHT22;8990;33.226;-97.150;2023-05-07T09:35:17;21.90;99.90
17740;DHT22;8990;33.226;-97.150;2023-05-07T09:37:56;21.80;99.90
17740;DHT22;8990;33.226;-97.150;2023-05-07T09:40:28;21.90;99.90
17740;DHT22;8990;33.226;-97.150;2023-05-07T09:43:09;21.90;99.90
17740;DHT22;8990;33.226;-97.150;2023-05-07T09:45:43;21.80;99.90
17740;DHT22;8990;33.226;-97.150;2023-05-07T09:48:14;21.80;99.90
17740;DHT22;8990;33.226;-97.150;2023-05-07T09:50:49;21.80;99.90
17740;DHT22;8990;33.226;-97.150;2023-05-07T09:53:25;21.70;99.90
17740;DHT22;8990;33.226;-97.150;2023-05-07T09:55:57;21.60;99.90
17740;DHT22;8990;33.226;-97.150;2023-05-07T09:58:28;21.60;99.90
17740;DHT22;8990;33.226;-97.150;2023-05-07T10:00:57;21.70;99.90
17740;DHT22;8990;33.226;-97.150;2023-05-07T10:03:28;21.60;99.90
17740;DHT22;8990;33.226;-97.150;2023-05-07T10:06:04;21.60;99.90
17740;DHT22;8990;33.226;-97.150;2023-05-07T10:08:36;21.60;99.90
17740;DHT22;8990;33.226;-97.150;2023-05-07T10:11:07;21.50;99.90
17740;DHT22;8990;33.226;-97.150;2023-05-07T10:13:36;21.50;99.90
17740;DHT22;8990;33.226;-97.150;2023-05-07T10:16:08;21.50;99.90
17740;DHT22;8990;33.226;-97.150;2023-05-07T10:18:44;21.40;99.90
17740;DHT22;8990;33.226;-97.150;2023-05-07T10:21:20;21.30;99.90
17740;DHT22;8990;33.226;-97.150;2023-05-07T10:24:03;21.30;99.90
17740;DHT22;8990;33.226;-97.150;2023-05-07T10:26:34;21.20;99.90
17740;DHT22;8990;33.226;-97.150;2023-05-07T10:29:11;21.20;99.90
17740;DHT22;8990;33.226;-97.150;2023-05-07T10:31:57;21.20;99.90
17740;DHT22;8990;33.226;-97.150;2023-05-07T10:34:32;21.20;99.90
17740;DHT22;8990;33.226;-97.150;2023-05-07T10:37:03;21.20;99.90
17740;DHT22;8990;33.226;-97.150;2023-05-07T10:39:35;21.10;99.90
17740;DHT22;8990;33.226;-97.150;2023-05-07T10:42:10;21.00;99.90
17740;DHT22;8990;33.226;-97.150;2023-05-07T10:44:44;21.00;99.90
17740;DHT22;8990;33.226;-97.150;2023-05-07T10:47:21;20.90;99.90
17740;DHT22;8990;33.226;-97.150;2023-05-07T10:50:22;21.00;99.90
17740;DHT22;8990;33.226;-97.150;2023-05-07T10:53:20;21.00;99.90
17740;DHT22;8990;33.226;-97.150;2023-05-07T10:56:25;21.00;99.90
17740;DHT22;8990;33.226;-97.150;2023-05-07T10:59:33;20.90;99.90
17740;DHT22;8990;33.226;-97.150;2023-05-07T11:03:07;20.90;99.90
17740;DHT22;8990;33.226;-97.150;2023-05-07T11:05:44;20.90;99.90
17740;DHT22;8990;33.226;-97.150;2023-05-07T11:08:24;20.90;99.90
17740;DHT22;8990;33.226;-97.150;2023-05-07T11:11:00;20.80;99.90
17740;DHT22;8990;33.226;-97.150;2023-05-07T11:13:59;20.90;99.90
17740;DHT22;8990;33.226;-97.150;2023-05-07T11:16:45;20.80;99.90
17740;DHT22;8990;33.226;-97.150;2023-05-07T11:19:47;20.90;99.90
17740;DHT22;8990;33.226;-97.150;2023-05-07T11:22:38;20.80;99.90
17740;DHT22;8990;33.226;-97.150;2023-05-07T11:25:33;20.80;99.90
17740;DHT22;8990;33.226;-97.150;2023-05-07T11:28:10;20.80;99.90
17740;DHT22;8990;33.226;-97.150;2023-05-07T11:30:47;20.80;99.90
17740;DHT22;8990;33.226;-97.150;2023-05-07T11:33:19;20.80;99.90
17740;DHT22;8990;33.226;-97.150;2023-05-07T11:35:52;20.90;99.90
17740;DHT22;8990;33.226;-97.150;2023-05-07T11:38:25;20.80;99.90
17740;DHT22;8990;33.226;-97.150;2023-05-07T11:40:55;20.80;99.90
17740;DHT22;8990;33.226;-97.150;2023-05-07T11:43:25;20.80;99.90
17740;DHT22;8990;33.226;-97.150;2023-05-07T11:46:05;20.80;99.90
17740;DHT22;8990;33.226;-97.150;2023-05-07T11:48:35;20.70;99.90
17740;DHT22;8990;33.226;-97.150;2023-05-07T11:51:05;20.70;99.90
17740;DHT22;8990;33.226;-97.150;2023-05-07T11:53:40;20.70;99.90
17740;DHT22;8990;33.226;-97.150;2023-05-07T11:56:09;20.70;99.90
17740;DHT22;8990;33.226;-97.150;2023-05-07T11:58:39;20.70;99.90
17740;DHT22;8990;33.226;-97.150;2023-05-07T12:01:10;20.80;99.90
17740;DHT22;8990;33.226;-97.150;2023-05-07T12:03:41;20.80;99.90
17740;DHT22;8990;33.226;-97.150;2023-05-07T12:06:11;20.80;99.90
17740;DHT22;8990;33.226;-97.150;2023-05-07T12:08:40;20.90;99.90
17740;DHT22;8990;33.226;-97.150;2023-05-07T12:11:12;21.00;99.90
17740;DHT22;8990;33.226;-97.150;2023-05-07T12:13:42;20.90;99.90
17740;DHT22;8990;33.226;-97.150;2023-05-07T12:16:13;21.00;99.90
17740;DHT22;8990;33.226;-97.150;2023-05-07T12:18:43;21.10;99.90
17740;DHT22;8990;33.226;-97.150;2023-05-07T12:21:12;21.10;99.90
17740;DHT22;8990;33.226;-97.150;2023-05-07T12:23:41;21.10;99.90
17740;DHT22;8990;33.226;-97.150;2023-05-07T12:26:11;21.20;99.90
17740;DHT22;8990;33.226;-97.150;2023-05-07T12:28:40;21.20;99.90
17740;DHT22;8990;33.226;-97.150;2023-05-07T12:31:09;21.30;99.90
17740;DHT22;8990;33.226;-97.150;2023-05-07T12:33:40;21.30;99.90
17740;DHT22;8990;33.226;-97.150;2023-05-07T12:36:11;21.30;99.90
17740;DHT22;8990;33.226;-97.150;2023-05-07T12:38:43;21.30;99.90
17740;DHT22;8990;33.226;-97.150;2023-05-07T12:41:12;21.40;99.90
17740;DHT22;8990;33.226;-97.150;2023-05-07T12:43:44;21.50;99.90
17740;DHT22;8990;33.226;-97.150;2023-05-07T12:46:14;21.60;99.90
17740;DHT22;8990;33.226;-97.150;2023-05-07T12:48:47;21.70;99.90
17740;DHT22;8990;33.226;-97.150;2023-05-07T12:51:16;21.70;99.90
17740;DHT22;8990;33.226;-97.150;2023-05-07T12:53:45;21.70;99.90
17740;DHT22;8990;33.226;-97.150;2023-05-07T12:56:16;21.90;99.90
17740;DHT22;8990;33.226;-97.150;2023-05-07T12:58:44;21.90;99.90
17740;DHT22;8990;33.226;-97.150;2023-05-07T13:01:13;22.00;99.90
17740;DHT22;8990;33.226;-97.150;2023-05-07T13:03:48;22.10;99.90
17740;DHT22;8990;33.226;-97.150;2023-05-07T13:06:19;22.30;99.90
17740;DHT22;8990;33.226;-97.150;2023-05-07T13:08:47;22.30;99.90
17740;DHT22;8990;33.226;-97.150;2023-05-07T13:11:17;22.50;99.90
17740;DHT22;8990;33.226;-97.150;2023-05-07T13:13:46;22.60;99.90
17740;DHT22;8990;33.226;-97.150;2023-05-07T13:16:15;22.70;99.90
17740;DHT22;8990;33.226;-97.150;2023-05-07T13:18:43;22.80;99.90
17740;DHT22;8990;33.226;-97.150;2023-05-07T13:21:14;22.80;99.90
17740;DHT22;8990;33.226;-97.150;2023-05-07T13:23:43;22.80;99.90
17740;DHT22;8990;33.226;-97.150;2023-05-07T13:26:11;22.80;99.90
17740;DHT22;8990;33.226;-97.150;2023-05-07T13:28:41;22.80;99.90
17740;DHT22;8990;33.226;-97.150;2023-05-07T13:31:10;22.90;99.90
17740;DHT22;8990;33.226;-97.150;2023-05-07T13:33:39;23.00;99.90
17740;DHT22;8990;33.226;-97.150;2023-05-07T13:36:08;23.10;99.90
17740;DHT22;8990;33.226;-97.150;2023-05-07T13:38:39;23.10;99.90
17740;DHT22;8990;33.226;-97.150;2023-05-07T13:41:08;23.20;99.90
17740;DHT22;8990;33.226;-97.150;2023-05-07T13:43:37;23.30;99.90
17740;DHT22;8990;33.226;-97.150;2023-05-07T13:46:06;23.40;99.90
17740;DHT22;8990;33.226;-97.150;2023-05-07T13:48:35;23.50;99.90
17740;DHT22;8990;33.226;-97.150;2023-05-07T13:51:04;23.50;99.90
17740;DHT22;8990;33.226;-97.150;2023-05-07T13:53:33;23.50;99.90
17740;DHT22;8990;33.226;-97.150;2023-05-07T13:56:05;23.70;99.90
17740;DHT22;8990;33.226;-97.150;2023-05-07T13:58:34;23.80;99.90
17740;DHT22;8990;33.226;-97.150;2023-05-07T14:01:03;23.80;99.90
17740;DHT22;8990;33.226;-97.150;2023-05-07T14:03:32;23.80;99.90
17740;DHT22;8990;33.226;-97.150;2023-05-07T14:06:01;23.90;99.90
17740;DHT22;8990;33.226;-97.150;2023-05-07T14:08:30;24.00;99.90
17740;DHT22;8990;33.226;-97.150;2023-05-07T14:10:59;24.10;99.90
17740;DHT22;8990;33.226;-97.150;2023-05-07T14:13:30;24.10;99.90
17740;DHT22;8990;33.226;-97.150;2023-05-07T14:15:59;24.20;99.90
17740;DHT22;8990;33.226;-97.150;2023-05-07T14:18:27;24.30;99.90
17740;DHT22;8990;33.226;-97.150;2023-05-07T14:20:57;24.50;99.90
17740;DHT22;8990;33.226;-97.150;2023-05-07T14:23:26;24.30;99.90
17740;DHT22;8990;33.226;-97.150;2023-05-07T14:25:55;24.50;99.90
17740;DHT22;8990;33.226;-97.150;2023-05-07T14:28:24;24.40;99.90
17740;DHT22;8990;33.226;-97.150;2023-05-07T14:30:54;24.50;99.90
17740;DHT22;8990;33.226;-97.150;2023-05-07T14:33:23;24.60;99.90
17740;DHT22;8990;33.226;-97.150;2023-05-07T14:35:52;24.60;99.90
17740;DHT22;8990;33.226;-97.150;2023-05-07T14:38:21;24.70;99.90
17740;DHT22;8990;33.226;-97.150;2023-05-07T14:40:49;24.80;99.90
17740;DHT22;8990;33.226;-97.150;2023-05-07T14:43:19;24.80;99.90
17740;DHT22;8990;33.226;-97.150;2023-05-07T14:45:49;24.90;99.90
17740;DHT22;8990;33.226;-97.150;2023-05-07T14:48:19;24.80;99.90
17740;DHT22;8990;33.226;-97.150;2023-05-07T14:50:48;24.90;99.90
17740;DHT22;8990;33.226;-97.150;2023-05-07T14:53:18;25.00;99.90
17740;DHT22;8990;33.226;-97.150;2023-05-07T14:55:48;25.10;99.90
17740;DHT22;8990;33.226;-97.150;2023-05-07T14:58:16;25.20;99.90
17740;DHT22;8990;33.226;-97.150;2023-05-07T15:00:45;25.20;99.90
17740;DHT22;8990;33.226;-97.150;2023-05-07T15:03:14;25.30;99.90
17740;DHT22;8990;33.226;-97.150;2023-05-07T15:05:47;25.50;99.90
17740;DHT22;8990;33.226;-97.150;2023-05-07T15:08:18;25.60;99.90
17740;DHT22;8990;33.226;-97.150;2023-05-07T15:10:46;25.70;99.90
17740;DHT22;8990;33.226;-97.150;2023-05-07T15:13:15;25.60;99.90
17740;DHT22;8990;33.226;-97.150;2023-05-07T15:15:45;25.60;99.90
17740;DHT22;8990;33.226;-97.150;2023-05-07T15:18:14;25.60;99.90
17740;DHT22;8990;33.226;-97.150;2023-05-07T15:20:43;25.60;99.90
17740;DHT22;8990;33.226;-97.150;2023-05-07T15:23:13;25.70;99.90
17740;DHT22;8990;33.226;-97.150;2023-05-07T15:25:47;25.80;99.90
17740;DHT22;8990;33.226;-97.150;2023-05-07T15:28:16;25.80;99.90
17740;DHT22;8990;33.226;-97.150;2023-05-07T15:30:44;25.80;99.90
17740;DHT22;8990;33.226;-97.150;2023-05-07T15:33:13;25.90;99.90
17740;DHT22;8990;33.226;-97.150;2023-05-07T15:35:42;26.00;99.90
17740;DHT22;8990;33.226;-97.150;2023-05-07T15:38:13;26.10;99.90
17740;DHT22;8990;33.226;-97.150;2023-05-07T15:40:42;26.20;99.90